createdAt,value
2023-01-26T00:01:18.712Z,87.33
2023-01-26T00:03:45.965Z,90.40
2023-01-26T00:06:15.348Z,89.80
2023-01-26T00:08:44.156Z,92.73
2023-01-26T00:11:13.299Z,92.90
2023-01-26T00:13:40.128Z,96.33
2023-01-26T00:16:14.955Z,97.33
2023-01-26T00:18:41.938Z,98.53
2023-01-26T00:21:20.350Z,95.10
2023-01-26T00:23:49.162Z,97.33
2023-01-26T00:26:19.075Z,105.03
2023-01-26T00:28:45.646Z,95.40
2023-01-26T00:31:17.154Z,94.77
2023-01-26T00:33:43.784Z,99.17
2023-01-26T00:36:10.436Z,95.43
2023-01-26T00:38:37.225Z,88.60
2023-01-26T00:41:03.961Z,88.53
2023-01-26T00:43:30.563Z,93.53
2023-01-26T00:45:56.966Z,91.40
2023-01-26T00:48:24.867Z,97.93
2023-01-26T00:50:52.523Z,91.43
2023-01-26T00:53:19.148Z,94.37
2023-01-26T00:55:45.691Z,102.27
2023-01-26T00:58:12.047Z,92.10
2023-01-26T01:00:38.897Z,96.83
2023-01-26T01:03:06.459Z,101.90
2023-01-26T01:05:34.126Z,110.60
2023-01-26T01:08:02.537Z,95.00
2023-01-26T01:10:29.383Z,102.50
2023-01-26T01:12:57.563Z,100.40
2023-01-26T01:15:25.087Z,110.70
2023-01-26T01:17:51.693Z,111.53
2023-01-26T01:20:18.238Z,112.50
2023-01-26T01:22:44.864Z,116.20
2023-01-26T01:25:13.979Z,124.97
2023-01-26T01:27:40.903Z,131.43
2023-01-26T01:30:08.679Z,140.53
2023-01-26T01:32:36.522Z,135.20
2023-01-26T01:35:03.868Z,129.80
2023-01-26T01:37:30.994Z,118.60
2023-01-26T01:39:57.583Z,137.20
2023-01-26T01:42:24.458Z,121.80
2023-01-26T01:45:37.285Z,129.77
2023-01-26T01:48:05.232Z,120.60
2023-01-26T01:50:37.219Z,117.20
2023-01-26T01:53:04.408Z,117.27
2023-01-26T01:55:31.203Z,111.33
2023-01-26T01:58:00.219Z,113.93
2023-01-26T02:00:28.071Z,116.60
2023-01-26T02:03:16.820Z,104.50
2023-01-26T02:06:09.290Z,120.00
2023-01-26T02:08:43.806Z,103.63
2023-01-26T02:11:20.629Z,112.40
2023-01-26T02:13:49.021Z,114.47
2023-01-26T02:16:16.351Z,113.97
2023-01-26T02:18:44.041Z,113.63
2023-01-26T02:21:13.289Z,113.97
2023-01-26T02:24:08.166Z,115.57
2023-01-26T02:26:36.178Z,117.27
2023-01-26T02:29:07.870Z,106.80
2023-01-26T02:31:35.048Z,110.60
2023-01-26T02:34:01.897Z,103.70
2023-01-26T02:36:30.643Z,103.60
2023-01-26T02:39:19.460Z,102.57
2023-01-26T02:42:06.416Z,101.90
2023-01-26T02:44:33.259Z,99.73
2023-01-26T02:47:00.278Z,97.17
2023-01-26T02:49:45.988Z,100.27
2023-01-26T02:52:13.351Z,95.40
2023-01-26T02:54:58.985Z,93.03
2023-01-26T02:57:26.573Z,95.77
2023-01-26T02:59:53.220Z,91.10
2023-01-26T03:02:19.759Z,80.50
2023-01-26T03:04:46.276Z,81.60
2023-01-26T03:07:12.746Z,77.63
2023-01-26T03:09:39.164Z,85.90
2023-01-26T03:12:06.164Z,86.10
2023-01-26T03:14:33.217Z,86.17
2023-01-26T03:16:59.923Z,73.83
2023-01-26T03:19:45.313Z,76.03
2023-01-26T03:22:35.797Z,74.20
2023-01-26T03:25:21.112Z,67.57
2023-01-26T03:27:48.857Z,74.30
2023-01-26T03:30:18.471Z,70.37
2023-01-26T03:32:45.749Z,63.70
2023-01-26T03:35:15.545Z,68.47
2023-01-26T03:37:54.497Z,70.47
2023-01-26T03:40:39.711Z,66.97
2023-01-26T03:43:28.103Z,70.13
2023-01-26T03:46:13.511Z,82.77
2023-01-26T03:48:58.755Z,77.33
2023-01-26T03:51:44.207Z,72.73
2023-01-26T03:54:29.535Z,73.00
2023-01-26T03:56:55.924Z,78.30
2023-01-26T03:59:38.268Z,87.60
2023-01-26T04:02:29.202Z,86.80
2023-01-26T04:05:14.290Z,75.93
2023-01-26T04:08:00.435Z,75.03
2023-01-26T04:10:27.442Z,79.57
2023-01-26T04:13:12.410Z,80.73
2023-01-26T04:15:57.841Z,80.43
2023-01-26T04:18:42.909Z,81.50
2023-01-26T04:21:28.214Z,81.23
2023-01-26T04:23:58.302Z,82.93
2023-01-26T04:26:36.759Z,87.27
2023-01-26T04:29:23.825Z,88.73
2023-01-26T04:31:50.535Z,86.90
2023-01-26T04:34:16.972Z,89.73
2023-01-26T04:36:43.555Z,82.40
2023-01-26T04:39:10.658Z,80.13
2023-01-26T04:41:37.140Z,76.27
2023-01-26T04:44:03.657Z,85.33
2023-01-26T04:46:30.106Z,83.50
2023-01-26T04:48:56.533Z,75.67
2023-01-26T04:51:23.034Z,73.00
2023-01-26T04:53:51.174Z,77.73
2023-01-26T04:56:29.668Z,70.13
2023-01-26T04:58:59.022Z,75.10
2023-01-26T05:01:25.702Z,71.10
2023-01-26T05:03:52.778Z,74.07
2023-01-26T05:06:19.376Z,83.67
2023-01-26T05:08:45.783Z,80.17
2023-01-26T05:11:12.178Z,76.70
2023-01-26T05:13:39.499Z,80.13
2023-01-26T05:16:07.832Z,68.87
2023-01-26T05:18:34.429Z,75.63
2023-01-26T05:21:00.935Z,68.93
2023-01-26T05:23:27.480Z,75.50
2023-01-26T05:25:55.045Z,71.10
2023-01-26T05:28:21.465Z,76.43
2023-01-26T05:30:48.057Z,78.83
2023-01-26T05:33:15.674Z,82.20
2023-01-26T05:35:42.833Z,79.67
2023-01-26T05:38:09.317Z,82.93
2023-01-26T05:40:35.772Z,81.70
2023-01-26T05:43:03.230Z,84.07
2023-01-26T05:45:30.079Z,84.57
2023-01-26T05:47:59.856Z,87.53
2023-01-26T05:50:26.469Z,77.47
2023-01-26T05:52:52.972Z,81.67
2023-01-26T05:55:20.407Z,77.67
2023-01-26T05:57:46.903Z,82.37
2023-01-26T06:00:15.988Z,77.63
2023-01-26T06:02:42.452Z,76.07
2023-01-26T06:05:09.330Z,73.43
2023-01-26T06:07:35.740Z,82.00
2023-01-26T06:10:02.203Z,91.60
2023-01-26T06:12:35.258Z,97.63
2023-01-26T06:15:02.374Z,95.50
2023-01-26T06:17:28.775Z,91.33
2023-01-26T06:19:55.129Z,93.30
2023-01-26T06:22:21.757Z,94.07
2023-01-26T06:24:48.160Z,84.90
2023-01-26T06:27:15.996Z,82.23
2023-01-26T06:29:44.670Z,73.90
2023-01-26T06:32:12.444Z,76.27
2023-01-26T06:34:38.970Z,73.57
2023-01-26T06:37:05.786Z,72.13
2023-01-26T06:39:32.289Z,82.97
2023-01-26T06:41:58.788Z,76.90
2023-01-26T06:44:25.259Z,86.90
2023-01-26T06:46:51.637Z,77.63
2023-01-26T06:49:18.035Z,77.70
2023-01-26T06:51:47.514Z,75.07
2023-01-26T06:54:14.913Z,81.17
2023-01-26T06:56:41.466Z,71.17
2023-01-26T06:59:10.654Z,75.43
2023-01-26T07:01:39.812Z,72.10
2023-01-26T07:04:06.340Z,68.67
2023-01-26T07:06:32.862Z,72.37
2023-01-26T07:08:59.241Z,69.07
2023-01-26T07:11:25.874Z,69.77
2023-01-26T07:13:53.406Z,67.67
2023-01-26T07:16:19.895Z,73.17
2023-01-26T07:18:46.509Z,70.17
2023-01-26T07:21:15.259Z,74.10
2023-01-26T07:23:42.583Z,72.17
2023-01-26T07:26:09.404Z,71.03
2023-01-26T07:28:35.858Z,68.37
2023-01-26T07:31:03.850Z,65.87
2023-01-26T07:33:31.209Z,73.00
2023-01-26T07:35:58.377Z,74.57
2023-01-26T07:38:25.634Z,68.50
2023-01-26T07:40:52.326Z,69.90
2023-01-26T07:43:21.884Z,64.80
2023-01-26T07:45:51.502Z,70.17
2023-01-26T07:48:21.781Z,69.10
2023-01-26T07:50:48.614Z,74.47
2023-01-26T07:53:16.766Z,81.27
2023-01-26T07:55:46.327Z,77.73
2023-01-26T07:58:13.111Z,71.70
2023-01-26T08:00:40.820Z,69.77
2023-01-26T08:03:08.119Z,77.10
2023-01-26T08:05:35.803Z,74.90
2023-01-26T08:08:02.532Z,74.63
2023-01-26T08:10:31.594Z,74.33
2023-01-26T08:13:01.230Z,85.67
2023-01-26T08:15:28.550Z,71.83
2023-01-26T08:17:55.044Z,77.30
2023-01-26T08:20:22.013Z,81.43
2023-01-26T08:22:48.469Z,85.60
2023-01-26T08:25:14.972Z,83.00
2023-01-26T08:27:41.387Z,78.10
2023-01-26T08:30:08.473Z,75.53
2023-01-26T08:32:35.104Z,75.43
2023-01-26T08:35:02.718Z,77.13
2023-01-26T08:37:29.352Z,78.80
2023-01-26T08:39:55.961Z,80.17
2023-01-26T08:42:22.922Z,81.37
2023-01-26T08:44:50.528Z,81.23
2023-01-26T08:47:17.120Z,83.97
2023-01-26T08:49:43.492Z,76.10
2023-01-26T08:52:09.849Z,79.20
2023-01-26T08:54:36.449Z,81.73
2023-01-26T08:57:02.852Z,77.33
2023-01-26T08:59:29.221Z,78.97
2023-01-26T09:01:55.998Z,82.40
2023-01-26T09:04:22.535Z,76.63
2023-01-26T09:06:48.887Z,68.00
2023-01-26T09:09:15.588Z,73.37
2023-01-26T09:11:43.040Z,76.33
2023-01-26T09:14:09.542Z,79.70
2023-01-26T09:16:36.064Z,76.37
2023-01-26T09:19:02.699Z,75.80
2023-01-26T09:21:29.113Z,72.53
2023-01-26T09:23:56.443Z,73.60
2023-01-26T09:26:23.145Z,66.90
2023-01-26T09:28:51.547Z,74.07
2023-01-26T09:31:18.420Z,75.10
2023-01-26T09:33:45.455Z,72.63
2023-01-26T09:36:12.699Z,71.33
2023-01-26T09:38:40.008Z,69.07
2023-01-26T09:41:17.959Z,66.67
2023-01-26T09:43:48.661Z,90.23
2023-01-26T09:46:15.078Z,75.47
2023-01-26T09:49:06.477Z,65.70
2023-01-26T09:52:02.358Z,65.57
2023-01-26T09:54:33.979Z,62.77
2023-01-26T09:57:02.005Z,71.30
2023-01-26T09:59:38.324Z,72.63
2023-01-26T10:02:21.085Z,65.27
2023-01-26T10:04:50.533Z,68.43
2023-01-26T10:07:17.197Z,73.13
2023-01-26T10:09:46.707Z,65.33
2023-01-26T10:12:24.901Z,61.23
2023-01-26T10:14:57.214Z,63.93
2023-01-26T10:17:41.975Z,62.30
2023-01-26T10:20:28.691Z,64.93
2023-01-26T10:22:59.694Z,59.40
2023-01-26T10:25:37.591Z,58.83
2023-01-26T10:28:28.492Z,65.33
2023-01-26T10:30:55.509Z,70.03
2023-01-26T10:33:28.463Z,69.33
2023-01-26T10:35:55.101Z,65.87
2023-01-26T10:38:37.877Z,71.57
2023-01-26T10:41:26.866Z,73.50
2023-01-26T10:44:02.606Z,69.33
2023-01-26T10:46:34.568Z,69.90
2023-01-26T10:49:03.941Z,69.30
2023-01-26T10:51:35.016Z,67.80
2023-01-26T10:54:22.179Z,68.27
2023-01-26T10:57:24.275Z,65.70
2023-01-26T11:00:00.233Z,71.20
2023-01-26T11:02:29.044Z,65.23
2023-01-26T11:05:03.081Z,60.60
2023-01-26T11:07:34.889Z,64.13
2023-01-26T11:10:37.715Z,64.87
2023-01-26T11:13:20.059Z,54.63
2023-01-26T11:16:22.490Z,58.40
2023-01-26T11:18:51.992Z,59.13
2023-01-26T11:21:36.054Z,60.13
2023-01-26T11:24:30.444Z,71.03
2023-01-26T11:27:13.975Z,62.07
2023-01-26T11:30:07.108Z,64.43
2023-01-26T11:32:55.533Z,59.70
2023-01-26T11:35:39.428Z,62.17
2023-01-26T11:38:30.843Z,60.00
2023-01-26T11:41:24.454Z,62.07
2023-01-26T11:44:13.797Z,57.33
2023-01-26T11:46:40.142Z,59.27
2023-01-26T11:49:18.994Z,61.13
2023-01-26T11:52:03.948Z,57.00
2023-01-26T11:55:00.490Z,61.33
2023-01-26T11:57:56.153Z,51.03
2023-01-26T12:00:30.357Z,56.30
2023-01-26T12:03:05.807Z,58.13
2023-01-26T12:05:44.483Z,54.93
2023-01-26T12:08:25.007Z,54.17
2023-01-26T12:10:54.407Z,48.87
2023-01-26T12:13:39.261Z,44.33
2023-01-26T12:16:13.236Z,51.63
2023-01-26T12:18:55.799Z,49.50
2023-01-26T12:21:26.431Z,51.60
2023-01-26T12:23:59.466Z,45.50
2023-01-26T12:26:31.078Z,57.83
2023-01-26T12:29:10.106Z,51.83
2023-01-26T12:31:50.114Z,46.67
2023-01-26T12:34:16.772Z,49.90
2023-01-26T12:37:12.506Z,48.27
2023-01-26T12:39:45.671Z,47.07
2023-01-26T12:42:26.366Z,49.50
2023-01-26T12:45:02.065Z,51.07
2023-01-26T12:47:33.684Z,53.57
2023-01-26T12:50:30.727Z,50.37
2023-01-26T12:53:07.543Z,48.67
2023-01-26T12:55:40.920Z,50.10
2023-01-26T12:58:21.711Z,52.30
2023-01-26T13:00:55.298Z,43.20
2023-01-26T13:03:44.414Z,44.60
2023-01-26T13:06:10.960Z,49.43
2023-01-26T13:08:37.462Z,46.37
2023-01-26T13:11:06.857Z,42.07
2023-01-26T13:13:55.588Z,46.97
2023-01-26T13:16:24.916Z,39.27
2023-01-26T13:18:56.004Z,39.40
2023-01-26T13:21:38.160Z,41.07
2023-01-26T13:24:30.796Z,35.83
2023-01-26T13:26:58.348Z,38.60
2023-01-26T13:29:24.733Z,40.20
2023-01-26T13:31:55.830Z,42.07
2023-01-26T13:34:27.284Z,43.20
2023-01-26T13:36:56.152Z,41.10
2023-01-26T13:39:35.247Z,33.97
2023-01-26T13:42:02.170Z,38.97
2023-01-26T13:44:40.505Z,40.10
2023-01-26T13:47:11.691Z,37.77
2023-01-26T13:49:42.776Z,37.73
2023-01-26T13:52:25.793Z,39.40
2023-01-26T13:54:54.526Z,35.47
2023-01-26T13:57:23.394Z,39.30
2023-01-26T13:59:52.172Z,40.63
2023-01-26T14:02:31.108Z,37.97
2023-01-26T14:04:59.419Z,34.47
2023-01-26T14:07:39.958Z,33.80
2023-01-26T14:10:07.218Z,35.87
2023-01-26T14:12:36.324Z,36.47
2023-01-26T14:15:05.904Z,32.80
2023-01-26T14:17:34.590Z,32.80
2023-01-26T14:20:03.537Z,33.53
2023-01-26T14:22:31.239Z,35.53
2023-01-26T14:24:57.714Z,34.47
2023-01-26T14:27:35.919Z,39.83
2023-01-26T14:30:22.957Z,40.60
2023-01-26T14:32:54.995Z,35.90
2023-01-26T14:35:23.391Z,61.03
2023-01-26T14:37:50.669Z,42.03
2023-01-26T14:40:21.917Z,35.47
2023-01-26T14:42:50.365Z,32.97
2023-01-26T14:45:17.183Z,38.47
2023-01-26T14:47:45.245Z,33.47
2023-01-26T14:50:16.510Z,35.47
2023-01-26T14:52:44.879Z,39.43
2023-01-26T14:55:26.287Z,43.17
2023-01-26T14:57:53.948Z,45.80
2023-01-26T15:00:36.039Z,32.93
2023-01-26T15:03:07.783Z,31.27
2023-01-26T15:05:38.883Z,33.40
2023-01-26T15:08:17.930Z,31.63
2023-01-26T15:11:18.407Z,29.27
2023-01-26T15:13:46.926Z,34.37
2023-01-26T15:16:19.069Z,33.90
2023-01-26T15:18:47.583Z,33.77
2023-01-26T15:21:18.364Z,31.60
2023-01-26T15:23:52.651Z,37.27
2023-01-26T15:26:31.955Z,37.33
2023-01-26T15:29:00.678Z,34.07
2023-01-26T15:31:38.278Z,35.17
2023-01-26T15:34:06.022Z,29.20
2023-01-26T15:36:49.780Z,31.60
2023-01-26T15:39:18.281Z,32.07
2023-01-26T15:41:46.973Z,33.20
2023-01-26T15:44:16.061Z,31.03
2023-01-26T15:46:42.997Z,33.10
2023-01-26T15:49:09.487Z,36.30
2023-01-26T15:51:36.977Z,35.97
2023-01-26T15:54:04.002Z,36.53
2023-01-26T15:56:31.058Z,34.77
2023-01-26T15:58:57.957Z,37.87
2023-01-26T16:01:24.735Z,34.33
2023-01-26T16:03:51.641Z,33.43
2023-01-26T16:06:22.533Z,37.33
2023-01-26T16:08:49.131Z,36.47
2023-01-26T16:11:15.543Z,36.37
2023-01-26T16:13:57.280Z,38.03
2023-01-26T16:16:29.693Z,38.50
2023-01-26T16:18:56.843Z,36.83
2023-01-26T16:21:26.516Z,44.43
2023-01-26T16:23:52.953Z,38.70
2023-01-26T16:26:19.774Z,38.20
2023-01-26T16:28:47.353Z,38.87
2023-01-26T16:31:26.316Z,40.03
2023-01-26T16:33:53.016Z,37.20
2023-01-26T16:36:20.239Z,40.87
2023-01-26T16:38:47.457Z,38.67
2023-01-26T16:41:24.569Z,40.23
2023-01-26T16:43:55.915Z,41.93
2023-01-26T16:46:22.748Z,41.07
2023-01-26T16:48:49.417Z,41.40
2023-01-26T16:51:19.573Z,34.50
2023-01-26T16:53:46.789Z,35.67
2023-01-26T16:56:14.413Z,42.77
2023-01-26T16:58:40.798Z,40.33
2023-01-26T17:01:14.530Z,46.73
2023-01-26T17:03:40.930Z,40.83
2023-01-26T17:06:07.360Z,40.83
2023-01-26T17:08:33.808Z,37.00
2023-01-26T17:11:02.773Z,38.97
2023-01-26T17:13:29.580Z,36.20
2023-01-26T17:15:57.048Z,40.43
2023-01-26T17:18:23.705Z,40.23
2023-01-26T17:20:51.481Z,35.17
2023-01-26T17:23:17.889Z,35.40
2023-01-26T17:25:44.273Z,38.23
2023-01-26T17:28:10.689Z,41.57
2023-01-26T17:30:37.362Z,29.07
2023-01-26T17:33:04.046Z,29.87
2023-01-26T17:35:30.717Z,27.83
2023-01-26T17:37:57.139Z,28.63
2023-01-26T17:40:23.637Z,28.63
2023-01-26T17:42:50.227Z,28.63
2023-01-26T17:45:16.633Z,27.70
2023-01-26T17:47:43.492Z,27.23
2023-01-26T17:50:10.547Z,31.63
2023-01-26T17:52:38.027Z,29.53
2023-01-26T17:55:06.214Z,29.73
2023-01-26T17:57:33.585Z,29.13
2023-01-26T18:00:00.027Z,27.33
2023-01-26T18:02:27.432Z,27.30
2023-01-26T18:04:53.919Z,29.53
2023-01-26T18:07:20.626Z,30.17
2023-01-26T18:09:46.981Z,28.90
2023-01-26T18:12:13.466Z,31.07
2023-01-26T18:14:39.909Z,33.03
2023-01-26T18:17:06.531Z,33.93
2023-01-26T18:19:33.255Z,37.20
2023-01-26T18:21:59.645Z,33.30
2023-01-26T18:24:26.151Z,32.73
2023-01-26T18:26:52.531Z,43.27
2023-01-26T18:29:21.982Z,39.13
2023-01-26T18:31:48.571Z,37.57
2023-01-26T18:34:15.142Z,38.97
2023-01-26T18:36:41.722Z,37.13
2023-01-26T18:39:12.407Z,41.33
2023-01-26T18:41:40.669Z,38.53
2023-01-26T18:44:11.534Z,50.03
2023-01-26T18:46:38.316Z,44.60
2023-01-26T18:49:06.891Z,45.57
2023-01-26T18:51:36.757Z,47.53
2023-01-26T18:54:04.766Z,47.47
2023-01-26T18:56:32.045Z,45.80
2023-01-26T18:58:58.585Z,45.47
2023-01-26T19:01:26.158Z,41.57
2023-01-26T19:04:02.857Z,43.70
2023-01-26T19:06:30.914Z,45.27
2023-01-26T19:09:00.627Z,44.60
2023-01-26T19:11:29.320Z,44.00
2023-01-26T19:13:56.001Z,42.00
2023-01-26T19:16:23.116Z,45.90
2023-01-26T19:18:56.574Z,45.73
2023-01-26T19:21:24.461Z,47.30
2023-01-26T19:23:52.768Z,50.27
2023-01-26T19:26:26.097Z,48.17
2023-01-26T19:28:53.510Z,43.73
2023-01-26T19:31:20.240Z,42.63
2023-01-26T19:33:57.564Z,43.97
2023-01-26T19:36:24.613Z,48.33
2023-01-26T19:38:51.374Z,41.70
2023-01-26T19:41:19.052Z,42.13
2023-01-26T19:43:45.458Z,45.93
2023-01-26T19:46:13.643Z,40.87
2023-01-26T19:48:40.604Z,41.97
2023-01-26T19:51:12.223Z,44.80
2023-01-26T19:53:40.873Z,42.77
2023-01-26T19:56:16.603Z,42.37
2023-01-26T19:58:44.169Z,39.53
2023-01-26T20:01:12.054Z,38.53
2023-01-26T20:03:39.226Z,48.50
2023-01-26T20:06:06.315Z,45.30
2023-01-26T20:08:32.996Z,43.03
2023-01-26T20:11:06.613Z,39.93
2023-01-26T20:13:33.833Z,39.07
2023-01-26T20:16:00.990Z,48.53
2023-01-26T20:18:27.537Z,38.53
2023-01-26T20:20:55.876Z,38.53
2023-01-26T20:23:23.688Z,43.10
2023-01-26T20:25:51.638Z,40.97
2023-01-26T20:28:18.718Z,38.33
2023-01-26T20:30:45.532Z,34.93
2023-01-26T20:33:12.496Z,37.40
2023-01-26T20:35:40.044Z,38.47
2023-01-26T20:38:12.909Z,35.50
2023-01-26T20:40:40.938Z,33.83
2023-01-26T20:43:07.416Z,36.60
2023-01-26T20:45:33.827Z,33.50
2023-01-26T20:48:00.260Z,34.33
2023-01-26T20:50:26.897Z,34.90
2023-01-26T20:52:53.517Z,31.83
2023-01-26T20:55:21.333Z,33.33
2023-01-26T20:57:47.988Z,31.47
2023-01-26T21:00:15.104Z,34.50
2023-01-26T21:02:41.942Z,34.10
2023-01-26T21:05:08.625Z,36.20
2023-01-26T21:07:35.067Z,34.33
2023-01-26T21:10:01.796Z,40.43
2023-01-26T21:12:28.402Z,43.93
2023-01-26T21:14:54.855Z,39.97
2023-01-26T21:17:28.621Z,40.77
2023-01-26T21:19:55.314Z,39.03
2023-01-26T21:22:21.857Z,40.83
2023-01-26T21:24:48.434Z,46.00
2023-01-26T21:27:15.202Z,49.43
2023-01-26T21:29:41.875Z,59.67
2023-01-26T21:32:09.013Z,53.90
2023-01-26T21:34:35.493Z,57.07
2023-01-26T21:37:02.008Z,57.50
2023-01-26T21:39:28.562Z,53.23
2023-01-26T21:41:59.568Z,50.20
2023-01-26T21:44:30.855Z,49.30
2023-01-26T21:47:00.011Z,54.30
2023-01-26T21:49:28.390Z,50.80
2023-01-26T21:52:13.597Z,49.97
2023-01-26T21:54:41.195Z,48.63
2023-01-26T21:57:28.540Z,56.50
2023-01-26T21:59:55.607Z,48.33
2023-01-26T22:02:22.269Z,53.03
2023-01-26T22:04:48.740Z,52.63
2023-01-26T22:07:15.296Z,52.93
2023-01-26T22:09:41.752Z,50.73
2023-01-26T22:12:08.371Z,50.40
2023-01-26T22:14:34.732Z,50.47
2023-01-26T22:17:02.016Z,49.57
2023-01-26T22:19:28.388Z,50.17
2023-01-26T22:21:55.252Z,47.57
2023-01-26T22:24:21.710Z,53.73
2023-01-26T22:26:49.297Z,51.43
2023-01-26T22:29:16.231Z,50.50
2023-01-26T22:31:42.927Z,51.17
2023-01-26T22:34:11.584Z,47.37
2023-01-26T22:36:38.203Z,48.03
2023-01-26T22:39:05.586Z,51.83
2023-01-26T22:41:32.253Z,55.10
2023-01-26T22:44:00.185Z,48.77
2023-01-26T22:46:31.357Z,49.03
2023-01-26T22:48:58.985Z,53.93
2023-01-26T22:51:28.113Z,49.60
2023-01-26T22:53:58.368Z,45.40
2023-01-26T22:56:26.398Z,50.03
2023-01-26T22:58:58.580Z,46.63
2023-01-26T23:01:31.420Z,44.20
2023-01-26T23:03:59.080Z,45.37
2023-01-26T23:06:26.107Z,45.27
2023-01-26T23:08:52.838Z,46.03
2023-01-26T23:11:22.131Z,50.60
2023-01-26T23:13:49.822Z,47.63
2023-01-26T23:16:16.919Z,43.53
2023-01-26T23:18:47.560Z,46.67
2023-01-26T23:21:14.377Z,47.97
2023-01-26T23:23:41.160Z,49.53
2023-01-26T23:26:08.610Z,46.90
2023-01-26T23:28:40.696Z,49.90
2023-01-26T23:31:07.345Z,46.83
2023-01-26T23:33:34.908Z,49.77
2023-01-26T23:36:01.978Z,51.43
2023-01-26T23:38:29.991Z,46.90
2023-01-26T23:40:57.116Z,47.83
2023-01-26T23:43:24.805Z,49.17
2023-01-26T23:45:51.819Z,46.67
2023-01-26T23:48:19.061Z,44.73
2023-01-26T23:50:46.020Z,40.70
2023-01-26T23:53:12.917Z,46.20
2023-01-26T23:55:41.294Z,41.77
2023-01-26T23:58:10.470Z,46.20
